createdAt,value
2023-04-03T00:01:11.426Z,4.61
2023-04-03T00:03:59.103Z,4.54
2023-04-03T00:06:45.443Z,4.50
2023-04-03T00:09:32.014Z,4.65
2023-04-03T00:12:18.445Z,4.73
2023-04-03T00:15:05.342Z,5.03
2023-04-03T00:17:51.921Z,4.72
2023-04-03T00:20:39.940Z,4.81
2023-04-03T00:23:26.410Z,4.88
2023-04-03T00:26:12.978Z,4.70
2023-04-03T00:29:00.632Z,4.52
2023-04-03T00:31:47.185Z,4.59
2023-04-03T00:34:33.893Z,4.23
2023-04-03T00:37:21.552Z,4.40
2023-04-03T00:40:09.620Z,4.44
2023-04-03T00:42:59.360Z,4.34
2023-04-03T00:45:47.606Z,4.22
2023-04-03T00:48:36.919Z,4.40
2023-04-03T00:51:27.105Z,4.23
2023-04-03T00:54:15.382Z,4.08
2023-04-03T00:57:02.306Z,3.96
2023-04-03T00:59:52.920Z,4.26
2023-04-03T01:02:41.679Z,4.34
2023-04-03T01:05:29.436Z,4.59
2023-04-03T01:08:16.016Z,4.67
2023-04-03T01:11:05.786Z,4.46
2023-04-03T01:13:52.541Z,4.45
2023-04-03T01:16:39.618Z,4.24
2023-04-03T01:19:27.023Z,4.41
2023-04-03T01:22:21.748Z,4.12
2023-04-03T01:25:08.051Z,4.22
2023-04-03T01:27:56.347Z,4.08
2023-04-03T01:30:48.842Z,4.14
2023-04-03T01:33:37.999Z,3.94
2023-04-03T01:36:27.124Z,3.62
2023-04-03T01:39:14.902Z,3.70
2023-04-03T01:42:01.231Z,3.35
2023-04-03T01:44:51.454Z,3.58
2023-04-03T01:47:37.849Z,3.72
2023-04-03T01:50:26.333Z,3.82
2023-04-03T01:53:12.983Z,3.87
2023-04-03T01:55:59.853Z,3.71
2023-04-03T01:58:46.332Z,3.85
2023-04-03T02:01:32.595Z,3.57
2023-04-03T02:04:18.874Z,3.55
2023-04-03T02:07:06.924Z,3.52
2023-04-03T02:09:53.343Z,3.53
2023-04-03T02:12:40.033Z,3.55
2023-04-03T02:15:26.478Z,3.70
2023-04-03T02:18:13.672Z,3.56
2023-04-03T02:20:59.843Z,3.71
2023-04-03T02:23:47.810Z,3.80
2023-04-03T02:26:34.140Z,3.65
2023-04-03T02:29:20.220Z,3.85
2023-04-03T02:32:07.298Z,3.66
2023-04-03T02:34:53.848Z,3.71
2023-04-03T02:37:40.480Z,3.35
2023-04-03T02:40:28.416Z,3.49
2023-04-03T02:43:14.943Z,3.43
2023-04-03T02:46:01.316Z,3.63
2023-04-03T02:48:47.840Z,3.49
2023-04-03T02:51:34.230Z,3.31
2023-04-03T02:54:20.952Z,3.19
2023-04-03T02:57:13.724Z,3.15
2023-04-03T03:00:00.184Z,3.41
2023-04-03T03:02:47.116Z,3.51
2023-04-03T03:05:33.853Z,3.30
2023-04-03T03:08:21.222Z,3.55
2023-04-03T03:11:08.006Z,3.50
2023-04-03T03:13:55.582Z,3.33
2023-04-03T03:16:41.671Z,3.34
2023-04-03T03:19:28.669Z,3.18
2023-04-03T03:22:14.880Z,3.33
2023-04-03T03:25:01.754Z,3.20
2023-04-03T03:27:47.793Z,3.31
2023-04-03T03:30:35.841Z,3.30
2023-04-03T03:33:22.440Z,3.09
2023-04-03T03:36:09.233Z,3.12
2023-04-03T03:38:56.657Z,3.28
2023-04-03T03:41:43.717Z,3.00
2023-04-03T03:44:30.141Z,2.93
2023-04-03T03:47:18.233Z,3.07
2023-04-03T03:50:04.621Z,3.36
2023-04-03T03:52:50.936Z,3.29
2023-04-03T03:55:38.033Z,3.25
2023-04-03T03:58:25.216Z,3.24
2023-04-03T04:01:11.954Z,3.18
2023-04-03T04:04:04.112Z,2.98
2023-04-03T04:06:52.731Z,3.13
2023-04-03T04:09:39.641Z,3.06
2023-04-03T04:12:28.324Z,2.91
2023-04-03T04:15:15.040Z,2.77
2023-04-03T04:18:01.749Z,2.78
2023-04-03T04:20:49.601Z,2.79
2023-04-03T04:23:37.637Z,2.75
2023-04-03T04:26:24.164Z,3.11
2023-04-03T04:29:11.098Z,2.68
2023-04-03T04:31:57.408Z,2.80
2023-04-03T04:34:44.075Z,2.82
2023-04-03T04:37:31.871Z,2.65
2023-04-03T04:40:19.044Z,2.61
2023-04-03T04:43:05.800Z,2.69
2023-04-03T04:46:02.664Z,3.05
2023-04-03T04:48:49.858Z,3.15
2023-04-03T04:51:51.138Z,3.16
2023-04-03T04:54:41.158Z,3.37
2023-04-03T04:57:27.906Z,3.62
2023-04-03T05:00:15.807Z,3.58
2023-04-03T05:03:02.275Z,3.42
2023-04-03T05:05:49.030Z,2.95
2023-04-03T05:08:35.865Z,2.82
2023-04-03T05:11:25.398Z,2.64
2023-04-03T05:14:12.230Z,2.40
2023-04-03T05:16:59.318Z,2.10
2023-04-03T05:19:49.031Z,2.11
2023-04-03T05:22:36.632Z,1.83
2023-04-03T05:25:27.250Z,1.79
2023-04-03T05:28:16.967Z,1.69
2023-04-03T05:31:03.726Z,1.61
2023-04-03T05:33:54.809Z,1.75
2023-04-03T05:36:41.485Z,1.87
2023-04-03T05:39:29.326Z,1.92
2023-04-03T05:42:16.805Z,1.87
2023-04-03T05:45:05.804Z,2.12
2023-04-03T05:47:52.395Z,2.45
2023-04-03T05:50:42.409Z,2.94
2023-04-03T05:53:35.297Z,2.85
2023-04-03T05:56:24.483Z,2.94
2023-04-03T05:59:11.352Z,3.22
2023-04-03T06:01:59.640Z,2.97
2023-04-03T06:04:46.305Z,3.08
2023-04-03T06:07:32.810Z,2.88
2023-04-03T06:10:21.073Z,3.04
2023-04-03T06:13:08.080Z,2.81
2023-04-03T06:15:54.492Z,2.88
2023-04-03T06:18:42.345Z,2.86
2023-04-03T06:21:29.489Z,2.91
2023-04-03T06:24:18.162Z,3.09
2023-04-03T06:27:04.724Z,3.12
2023-04-03T06:29:50.845Z,3.19
2023-04-03T06:32:37.192Z,3.32
2023-04-03T06:35:26.274Z,3.45
2023-04-03T06:38:12.789Z,3.54
2023-04-03T06:40:59.333Z,3.62
2023-04-03T06:43:46.493Z,4.00
2023-04-03T06:46:34.182Z,4.41
2023-04-03T06:49:20.873Z,4.48
2023-04-03T06:52:08.282Z,4.78
2023-04-03T06:54:58.078Z,4.73
2023-04-03T06:57:44.598Z,5.04
2023-04-03T07:00:31.021Z,5.13
2023-04-03T07:03:17.453Z,5.25
2023-04-03T07:06:03.964Z,5.17
2023-04-03T07:08:52.268Z,5.06
2023-04-03T07:11:38.971Z,4.88
2023-04-03T07:14:25.392Z,4.92
2023-04-03T07:17:12.029Z,5.19
2023-04-03T07:19:58.498Z,5.44
2023-04-03T07:22:44.722Z,5.46
2023-04-03T07:25:32.718Z,5.74
2023-04-03T07:28:20.500Z,6.00
2023-04-03T07:31:09.610Z,6.30
2023-04-03T07:33:56.414Z,6.39
2023-04-03T07:36:43.312Z,6.12
2023-04-03T07:39:29.841Z,6.02
2023-04-03T07:42:17.507Z,6.48
2023-04-03T07:45:03.912Z,6.27
2023-04-03T07:47:50.391Z,6.74
2023-04-03T07:50:37.126Z,6.70
2023-04-03T07:53:23.639Z,7.13
2023-04-03T07:56:11.491Z,7.16
2023-04-03T07:58:59.185Z,6.80
2023-04-03T08:01:45.868Z,7.10
2023-04-03T08:04:32.372Z,7.13
2023-04-03T08:07:18.729Z,7.29
2023-04-03T08:10:05.734Z,7.34
2023-04-03T08:12:52.587Z,7.09
2023-04-03T08:15:40.235Z,7.25
2023-04-03T08:18:27.593Z,7.08
2023-04-03T08:21:14.691Z,6.90
2023-04-03T08:24:01.303Z,7.24
2023-04-03T08:26:47.518Z,8.03
2023-04-03T08:29:34.769Z,8.53
2023-04-03T08:32:23.248Z,8.46
2023-04-03T08:35:10.199Z,8.20
2023-04-03T08:37:56.251Z,8.66
2023-04-03T08:40:43.524Z,8.14
2023-04-03T08:43:43.681Z,8.79
2023-04-03T08:46:45.625Z,9.04
2023-04-03T08:49:37.765Z,9.01
2023-04-03T08:52:34.055Z,8.80
2023-04-03T08:55:25.700Z,8.22
2023-04-03T08:58:17.413Z,8.37
2023-04-03T09:01:07.397Z,9.07
2023-04-03T09:03:53.988Z,8.92
2023-04-03T09:06:47.144Z,8.91
2023-04-03T09:09:37.525Z,8.99
2023-04-03T09:12:27.652Z,8.66
2023-04-03T09:15:31.332Z,8.95
2023-04-03T09:18:30.651Z,8.76
2023-04-03T09:21:24.884Z,9.37
2023-04-03T09:24:15.714Z,9.80
2023-04-03T09:27:08.996Z,9.25
2023-04-03T09:29:58.368Z,9.11
2023-04-03T09:32:48.175Z,8.53
2023-04-03T09:35:44.758Z,9.18
2023-04-03T09:38:35.573Z,8.93
2023-04-03T09:41:23.605Z,8.97
2023-04-03T09:44:24.779Z,10.13
2023-04-03T09:47:25.673Z,9.76
2023-04-03T09:50:24.227Z,9.89
2023-04-03T09:53:29.215Z,10.28
2023-04-03T09:56:26.791Z,10.07
2023-04-03T09:59:17.936Z,9.64
2023-04-03T10:02:20.154Z,9.58
2023-04-03T10:05:26.932Z,9.31
2023-04-03T10:08:24.876Z,9.47
2023-04-03T10:11:16.768Z,9.50
2023-04-03T10:14:07.839Z,9.29
2023-04-03T10:17:01.756Z,9.37
2023-04-03T10:19:54.116Z,9.81
2023-04-03T10:22:56.132Z,10.15
2023-04-03T10:25:47.561Z,10.01
2023-04-03T10:28:40.967Z,10.07
2023-04-03T10:31:37.198Z,10.54
2023-04-03T10:34:27.982Z,10.15
2023-04-03T10:37:22.289Z,9.94
2023-04-03T10:40:21.273Z,10.21
2023-04-03T10:43:14.069Z,10.49
2023-04-03T10:46:06.469Z,9.68
2023-04-03T10:49:08.251Z,9.97
2023-04-03T10:52:05.905Z,9.88
2023-04-03T10:55:03.555Z,10.62
2023-04-03T10:57:51.303Z,10.70
2023-04-03T11:00:43.549Z,11.01
2023-04-03T11:03:34.786Z,10.80
2023-04-03T11:06:25.642Z,10.61
2023-04-03T11:09:21.778Z,10.43
2023-04-03T11:12:14.749Z,10.04
2023-04-03T11:15:03.406Z,9.96
2023-04-03T11:17:56.895Z,9.78
2023-04-03T11:20:46.782Z,10.00
2023-04-03T11:23:48.868Z,10.06
2023-04-03T11:26:41.886Z,11.05
2023-04-03T11:29:35.758Z,10.57
2023-04-03T11:32:54.721Z,10.09
2023-04-03T11:35:45.349Z,10.34
2023-04-03T11:38:37.431Z,10.51
2023-04-03T11:41:29.460Z,10.52
2023-04-03T11:44:34.320Z,10.17
2023-04-03T11:47:48.394Z,11.06
2023-04-03T11:50:47.680Z,10.82
2023-04-03T11:53:37.091Z,10.94
2023-04-03T11:56:32.972Z,10.63
2023-04-03T11:59:25.614Z,10.54
2023-04-03T12:02:51.103Z,10.52
2023-04-03T12:05:40.746Z,11.07
2023-04-03T12:08:28.160Z,10.96
2023-04-03T12:11:27.849Z,11.63
2023-04-03T12:14:17.346Z,10.98
2023-04-03T12:17:04.074Z,11.26
2023-04-03T12:19:50.513Z,11.27
2023-04-03T12:22:37.036Z,11.25
2023-04-03T12:25:51.200Z,11.34
2023-04-03T12:28:41.778Z,11.61
2023-04-03T12:31:46.093Z,11.20
2023-04-03T12:34:48.546Z,11.11
2023-04-03T12:37:53.090Z,11.26
2023-04-03T12:40:49.981Z,12.42
2023-04-03T12:43:50.680Z,11.43
2023-04-03T12:46:41.671Z,12.05
2023-04-03T12:49:39.085Z,11.58
2023-04-03T12:52:35.004Z,11.44
2023-04-03T12:55:23.182Z,11.04
2023-04-03T12:58:17.328Z,10.73
2023-04-03T13:01:12.275Z,10.69
2023-04-03T13:04:00.666Z,11.21
2023-04-03T13:06:47.147Z,12.14
2023-04-03T13:09:33.599Z,12.03
2023-04-03T13:12:19.794Z,12.30
2023-04-03T13:15:17.487Z,11.71
2023-04-03T13:18:05.456Z,11.76
2023-04-03T13:20:52.757Z,12.25
2023-04-03T13:23:44.308Z,12.35
2023-04-03T13:26:33.572Z,11.82
2023-04-03T13:29:31.060Z,11.91
2023-04-03T13:32:25.318Z,11.88
2023-04-03T13:38:27.098Z,11.58
2023-04-03T13:41:26.851Z,11.17
2023-04-03T13:44:29.169Z,11.12
2023-04-03T13:47:21.523Z,11.71
2023-04-03T13:50:19.176Z,12.04
2023-04-03T13:53:13.317Z,11.62
2023-04-03T13:56:08.741Z,11.24
2023-04-03T13:59:06.952Z,11.39
2023-04-03T14:01:55.926Z,12.14
2023-04-03T14:04:54.134Z,13.00
2023-04-03T14:07:40.352Z,13.23
2023-04-03T14:10:26.800Z,14.35
2023-04-03T14:13:17.085Z,13.38
2023-04-03T14:16:15.102Z,13.56
2023-04-03T14:19:02.026Z,13.97
2023-04-03T14:21:49.051Z,13.55
2023-04-03T14:24:37.725Z,12.78
2023-04-03T14:27:26.741Z,12.65
2023-04-03T14:30:21.915Z,12.74
2023-04-03T14:33:08.881Z,12.55
2023-04-03T14:35:56.539Z,11.78
2023-04-03T14:38:46.075Z,11.96
2023-04-03T14:41:32.656Z,12.18
2023-04-03T14:44:19.047Z,11.76
2023-04-03T14:47:11.784Z,12.01
2023-04-03T14:50:00.944Z,11.76
2023-04-03T14:52:47.331Z,11.74
2023-04-03T14:55:33.775Z,13.04
2023-04-03T14:58:21.977Z,12.41
2023-04-03T15:01:08.532Z,12.43
2023-04-03T15:03:56.649Z,12.92
2023-04-03T15:06:44.112Z,13.17
2023-04-03T15:09:30.528Z,12.19
2023-04-03T15:12:16.744Z,12.65
2023-04-03T15:15:03.779Z,12.08
2023-04-03T15:17:55.476Z,12.12
2023-04-03T15:20:44.156Z,12.79
2023-04-03T15:23:30.931Z,12.47
2023-04-03T15:26:17.024Z,12.46
2023-04-03T15:29:03.171Z,12.33
2023-04-03T15:31:50.690Z,11.51
2023-04-03T15:34:37.998Z,11.89
2023-04-03T15:37:26.266Z,13.08
2023-04-03T15:40:13.678Z,12.69
2023-04-03T15:43:18.910Z,12.91
2023-04-03T15:46:13.889Z,12.75
2023-04-03T15:49:29.093Z,13.01
2023-04-03T15:52:39.251Z,14.21
2023-04-03T15:55:38.883Z,14.36
2023-04-03T15:58:26.962Z,13.13
2023-04-03T16:01:29.421Z,13.08
2023-04-03T16:04:30.420Z,13.10
2023-04-03T16:07:39.549Z,12.13
2023-04-03T16:10:38.217Z,12.96
2023-04-03T16:14:03.483Z,12.61
2023-04-03T16:17:00.512Z,12.49
2023-04-03T16:20:09.984Z,12.11
2023-04-03T16:23:40.424Z,12.60
2023-04-03T16:26:32.370Z,12.35
2023-04-03T16:29:30.450Z,13.49
2023-04-03T16:32:39.917Z,13.44
2023-04-03T16:35:26.931Z,13.89
2023-04-03T16:38:13.229Z,14.03
2023-04-03T16:41:05.198Z,13.17
2023-04-03T16:43:52.028Z,11.95
2023-04-03T16:46:38.668Z,11.03
2023-04-03T16:49:25.465Z,10.75
2023-04-03T16:52:11.975Z,10.26
2023-04-03T16:54:59.850Z,10.22
2023-04-03T16:57:48.008Z,9.91
2023-04-03T17:00:34.899Z,9.96
2023-04-03T17:03:21.605Z,9.48
2023-04-03T17:06:08.322Z,9.48
2023-04-03T17:08:54.946Z,9.54
2023-04-03T17:11:50.407Z,9.37
2023-04-03T17:14:38.069Z,9.38
2023-04-03T17:17:26.836Z,9.53
2023-04-03T17:20:13.686Z,9.56
2023-04-03T17:23:00.049Z,9.25
2023-04-03T17:25:46.806Z,9.16
2023-04-03T17:28:32.998Z,9.45
2023-04-03T17:31:20.732Z,9.18
2023-04-03T17:34:06.991Z,9.07
2023-04-03T17:36:53.561Z,9.04
2023-04-03T17:39:40.107Z,8.96
2023-04-03T17:42:26.534Z,8.99
2023-04-03T17:45:13.295Z,9.02
2023-04-03T17:48:01.223Z,8.73
2023-04-03T17:50:47.625Z,8.58
2023-04-03T17:53:37.893Z,8.72
2023-04-03T17:56:27.038Z,8.57
2023-04-03T17:59:15.116Z,9.77
2023-04-03T18:02:02.837Z,9.95
2023-04-03T18:04:52.339Z,8.82
2023-04-03T18:07:41.121Z,8.78
2023-04-03T18:10:27.956Z,8.18
2023-04-03T18:13:16.000Z,8.46
2023-04-03T18:16:02.912Z,8.40
2023-04-03T18:19:02.592Z,8.24
2023-04-03T18:22:03.023Z,8.13
2023-04-03T18:24:50.363Z,8.24
2023-04-03T18:27:36.853Z,7.91
2023-04-03T18:30:26.462Z,7.83
2023-04-03T18:33:13.021Z,7.59
2023-04-03T18:36:03.010Z,7.70
2023-04-03T18:38:50.952Z,8.01
2023-04-03T18:41:38.412Z,7.92
2023-04-03T18:44:26.094Z,7.75
2023-04-03T18:47:13.287Z,8.00
2023-04-03T18:50:00.429Z,7.67
2023-04-03T18:52:50.566Z,7.57
2023-04-03T18:55:38.440Z,7.81
2023-04-03T18:58:24.954Z,7.10
2023-04-03T19:01:12.032Z,7.28
2023-04-03T19:03:58.722Z,7.02
2023-04-03T19:06:45.684Z,6.70
2023-04-03T19:09:32.850Z,7.02
2023-04-03T19:12:20.833Z,6.82
2023-04-03T19:15:08.092Z,6.13
2023-04-03T19:17:54.429Z,6.16
2023-04-03T19:20:41.450Z,6.01
2023-04-03T19:23:27.955Z,5.95
2023-04-03T19:26:14.745Z,6.02
2023-04-03T19:29:02.639Z,5.98
2023-04-03T19:31:48.877Z,6.09
2023-04-03T19:34:35.122Z,6.07
2023-04-03T19:37:21.425Z,6.30
2023-04-03T19:40:09.590Z,6.12
2023-04-03T19:42:56.079Z,6.24
2023-04-03T19:45:45.950Z,5.89
2023-04-03T19:48:32.577Z,5.76
2023-04-03T19:51:19.350Z,5.74
2023-04-03T19:54:06.061Z,5.79
2023-04-03T19:56:52.655Z,5.91
2023-04-03T19:59:39.215Z,5.84
2023-04-03T20:02:27.396Z,5.72
2023-04-03T20:05:14.038Z,5.53
2023-04-03T20:08:00.185Z,5.31
2023-04-03T20:10:46.933Z,5.18
2023-04-03T20:13:33.748Z,4.96
2023-04-03T20:16:22.381Z,4.97
2023-04-03T20:19:10.792Z,4.95
2023-04-03T20:21:58.430Z,4.92
2023-04-03T20:24:44.856Z,4.99
2023-04-03T20:27:32.230Z,4.92
2023-04-03T20:30:18.422Z,5.35
2023-04-03T20:33:05.621Z,5.18
2023-04-03T20:35:54.669Z,5.32
2023-04-03T20:38:41.290Z,5.27
2023-04-03T20:41:27.815Z,5.20
2023-04-03T20:44:15.313Z,5.21
2023-04-03T20:47:01.751Z,5.12
2023-04-03T20:49:48.878Z,5.09
2023-04-03T20:52:36.614Z,5.04
2023-04-03T20:55:23.467Z,5.01
2023-04-03T20:58:11.276Z,5.00
2023-04-03T21:00:57.870Z,5.14
2023-04-03T21:03:46.096Z,5.32
2023-04-03T21:07:10.388Z,5.46
2023-04-03T21:10:33.991Z,5.95
2023-04-03T21:13:57.714Z,6.08
2023-04-03T21:16:44.580Z,5.80
2023-04-03T21:19:33.114Z,6.03
2023-04-03T21:22:21.701Z,5.75
2023-04-03T21:25:08.821Z,5.81
2023-04-03T21:27:55.069Z,5.66
2023-04-03T21:30:41.752Z,5.61
2023-04-03T21:33:28.309Z,5.65
2023-04-03T21:36:16.266Z,5.61
2023-04-03T21:39:02.978Z,5.49
2023-04-03T21:41:50.471Z,5.71
2023-04-03T21:44:36.836Z,5.56
2023-04-03T21:47:23.900Z,5.59
2023-04-03T21:50:10.727Z,5.52
2023-04-03T21:52:58.461Z,5.24
2023-04-03T21:55:53.706Z,5.67
2023-04-03T21:58:40.181Z,5.54
2023-04-03T22:01:27.444Z,5.49
2023-04-03T22:04:13.767Z,5.57
2023-04-03T22:06:59.790Z,5.82
2023-04-03T22:09:47.603Z,5.79
2023-04-03T22:12:34.177Z,5.68
2023-04-03T22:15:22.252Z,5.90
2023-04-03T22:18:08.501Z,5.81
2023-04-03T22:20:55.694Z,6.06
2023-04-03T22:23:42.147Z,5.91
2023-04-03T22:26:29.970Z,5.64
2023-04-03T22:29:16.707Z,5.49
2023-04-03T22:32:03.008Z,5.55
2023-04-03T22:34:49.259Z,5.25
2023-04-03T22:37:35.993Z,5.19
2023-04-03T22:40:22.129Z,4.83
2023-04-03T22:43:09.929Z,4.65
2023-04-03T22:45:57.530Z,4.58
2023-04-03T22:48:45.177Z,4.46
2023-04-03T22:51:31.288Z,4.31
2023-04-03T22:54:17.698Z,4.04
2023-04-03T22:57:04.371Z,4.08
2023-04-03T22:59:51.948Z,4.11
2023-04-03T23:02:38.415Z,3.75
2023-04-03T23:05:24.739Z,3.87
2023-04-03T23:08:11.524Z,4.05
2023-04-03T23:10:58.214Z,3.96
2023-04-03T23:13:44.534Z,3.83
2023-04-03T23:16:32.680Z,3.72
2023-04-03T23:19:19.372Z,3.84
2023-04-03T23:22:05.939Z,3.70
2023-04-03T23:24:52.025Z,3.61
2023-04-03T23:27:38.411Z,3.86
2023-04-03T23:30:24.864Z,3.66
2023-04-03T23:33:12.614Z,3.44
2023-04-03T23:35:59.346Z,3.37
2023-04-03T23:38:46.014Z,3.56
2023-04-03T23:41:32.318Z,3.63
2023-04-03T23:44:18.702Z,3.75
2023-04-03T23:47:05.355Z,4.00
2023-04-03T23:49:52.893Z,3.90
2023-04-03T23:52:39.328Z,3.77
2023-04-03T23:55:25.723Z,3.61
2023-04-03T23:58:12.265Z,3.60
